Time;durP1;ratioP1;P1;durP2;ratioP2;P2;SDS_P1;SDS_P2;PMS_P1;PMS_P2;Temp;Humidity;BMP_temperature;BMP_pressure;BME280_temperature;BME280_humidity;BME280_pressure;Samples;Min_cycle;Max_cycle;Signal;HPM_P1;HPM_P2
2022/12/01 00:02:12;;;;;;;75.93;30.75;;;;;;;4.97;100.00;102665.38;5202917;28;20036;-74
2022/12/01 00:04:43;;;;;;;77.38;30.70;;;;;;;4.97;100.00;102662.72;5202759;28;20433;-74
2022/12/01 00:07:13;;;;;;;78.07;30.35;;;;;;;4.98;100.00;102667.13;5202432;28;20036;-74
2022/12/01 00:12:32;;;;;;;75.22;28.27;;;;;;;4.96;100.00;102659.19;5202772;28;20971;-74
2022/12/01 00:15:03;;;;;;;75.18;29.88;;;;;;;4.97;100.00;102646.75;5202941;28;20042;-74
2022/12/01 00:17:33;;;;;;;71.82;28.65;;;;;;;4.94;100.00;102653.97;5202374;28;20021;-74
2022/12/01 00:20:05;;;;;;;74.75;28.70;;;;;;;4.97;100.00;102647.63;5202971;28;20041;-74
2022/12/01 00:22:36;;;;;;;72.97;28.70;;;;;;;4.94;100.00;102650.47;5202898;28;20029;-74
2022/12/01 00:25:06;;;;;;;81.28;29.55;;;;;;;4.94;100.00;102648.66;5202690;28;20498;-74
2022/12/01 00:27:37;;;;;;;80.03;29.52;;;;;;;4.96;100.00;102639.72;5195312;28;20026;-74
2022/12/01 00:30:10;;;;;;;72.15;28.92;;;;;;;4.94;100.00;102635.34;5196331;28;20017;-73
2022/12/01 00:32:41;;;;;;;70.13;28.15;;;;;;;4.92;100.00;102645.22;5202856;28;20033;-73
2022/12/01 00:35:12;;;;;;;83.65;30.70;;;;;;;4.94;100.00;102642.47;5202668;28;20053;-75
2022/12/01 00:37:43;;;;;;;74.43;27.92;;;;;;;4.92;100.00;102639.91;5202159;28;20538;-74
2022/12/01 00:40:13;;;;;;;79.22;31.08;;;;;;;4.91;100.00;102635.50;5206121;28;20116;-74
2022/12/01 00:42:44;;;;;;;79.57;30.20;;;;;;;4.96;100.00;102647.69;5206703;28;20021;-74
2022/12/01 00:45:15;;;;;;;73.10;29.38;;;;;;;4.93;100.00;102646.09;5206102;28;20099;-74
2022/12/01 00:47:45;;;;;;;80.35;30.55;;;;;;;4.92;100.00;102649.69;5206013;28;20029;-75
2022/12/01 00:50:15;;;;;;;71.68;28.20;;;;;;;4.91;100.00;102646.16;5206438;28;20560;-75
2022/12/01 00:52:46;;;;;;;74.00;28.75;;;;;;;4.93;100.00;102649.59;5206146;28;20364;-72
2022/12/01 00:55:16;;;;;;;75.65;27.63;;;;;;;4.90;100.00;102648.91;5206463;28;20021;-75
2022/12/01 00:57:47;;;;;;;72.63;28.92;;;;;;;4.91;100.00;102654.13;5205867;28;20033;-74
2022/12/01 01:00:18;;;;;;;76.75;30.80;;;;;;;4.89;100.00;102647.19;5206319;28;20260;-75
2022/12/01 01:02:48;;;;;;;68.03;29.20;;;;;;;4.87;100.00;102646.41;5205188;28;20111;-74
2022/12/01 01:05:19;;;;;;;77.15;29.88;;;;;;;4.87;100.00;102649.06;5205711;28;20146;-75
2022/12/01 01:07:49;;;;;;;73.90;29.05;;;;;;;4.84;100.00;102658.09;5205447;28;20032;-75
2022/12/01 01:10:20;;;;;;;76.68;28.92;;;;;;;4.86;100.00;102658.00;5206024;28;20033;-75
2022/12/01 01:12:50;;;;;;;78.50;30.10;;;;;;;4.84;100.00;102667.88;5206185;28;20109;-75
2022/12/01 01:15:21;;;;;;;81.32;30.20;;;;;;;4.84;100.00;102673.19;5205943;28;20022;-74
2022/12/01 01:17:51;;;;;;;73.05;29.42;;;;;;;4.82;100.00;102667.06;5205033;28;20022;-73
2022/12/01 01:20:22;;;;;;;72.80;30.00;;;;;;;4.82;100.00;102675.06;5205913;28;20051;-74
2022/12/01 01:22:52;;;;;;;79.80;28.55;;;;;;;4.85;100.00;102675.75;5206023;28;20048;-75
2022/12/01 01:25:23;;;;;;;74.47;27.23;;;;;;;4.90;100.00;102681.69;5205683;28;20056;-73
2022/12/01 01:27:53;;;;;;;75.53;28.50;;;;;;;4.88;100.00;102680.91;5195960;28;20018;-74
2022/12/01 01:30:24;;;;;;;79.20;27.92;;;;;;;4.87;100.00;102684.53;5201335;28;20018;-71
2022/12/01 01:32:54;;;;;;;71.45;27.40;;;;;;;4.88;100.00;102685.38;5205322;28;20025;-72
2022/12/01 01:35:24;;;;;;;73.47;27.75;;;;;;;4.84;100.00;102683.81;5205311;28;20505;-73
2022/12/01 01:37:55;;;;;;;71.30;27.50;;;;;;;4.81;100.00;102694.63;5204871;28;20082;-74
2022/12/01 01:40:25;;;;;;;74.18;27.17;;;;;;;4.78;100.00;102697.47;5205257;28;20045;-73
2022/12/01 01:42:56;;;;;;;68.88;27.52;;;;;;;4.82;100.00;102693.66;5204802;28;20025;-73
2022/12/01 01:45:28;;;;;;;69.13;26.98;;;;;;;4.82;100.00;102693.66;5204852;28;20022;-73
2022/12/01 01:47:59;;;;;;;68.35;26.02;;;;;;;4.77;100.00;102693.94;5203466;28;20029;-73
2022/12/01 01:50:30;;;;;;;69.57;26.45;;;;;;;4.75;100.00;102692.31;5204072;28;20071;-73
2022/12/01 01:53:03;;;;;;;66.43;26.52;;;;;;;4.70;100.00;102697.88;5204635;28;20029;-73
2022/12/01 01:55:35;;;;;;;66.07;26.08;;;;;;;4.69;100.00;102698.81;5205044;28;20082;-73
2022/12/01 01:58:09;;;;;;;65.53;25.70;;;;;;;4.67;100.00;102692.72;5204104;28;20033;-71
2022/12/01 02:00:43;;;;;;;70.95;26.80;;;;;;;4.65;100.00;102682.16;5204929;28;20119;-71
2022/12/01 02:03:15;;;;;;;74.50;26.38;;;;;;;4.64;100.00;102693.75;5205094;28;20024;-71
2022/12/01 02:05:46;;;;;;;73.35;29.02;;;;;;;4.65;100.00;102695.44;5204446;28;20033;-73
2022/12/01 02:08:17;;;;;;;78.18;27.17;;;;;;;4.67;100.00;102693.59;5204314;28;20463;-74
2022/12/01 02:11:05;;;;;;;80.32;27.58;;;;;;;4.67;100.00;102696.25;5204585;28;20087;-74
2022/12/01 02:13:45;;;;;;;72.22;27.73;;;;;;;4.68;100.00;102686.47;5204785;28;20034;-74
2022/12/01 02:16:29;;;;;;;70.40;26.38;;;;;;;4.73;100.00;102699.53;5204177;28;20040;-74
2022/12/01 02:19:26;;;;;;;81.97;28.73;;;;;;;4.69;100.00;102698.81;5204303;28;20487;-74
2022/12/01 02:22:28;;;;;;;74.60;26.50;;;;;;;4.71;100.00;102699.56;5194780;28;20570;-74
2022/12/01 02:25:11;;;;;;;64.78;24.70;;;;;;;4.69;100.00;102693.50;5204401;28;20076;-74
2022/12/01 02:28:32;;;;;;;74.78;25.73;;;;;;;4.67;100.00;102696.25;5203852;28;20036;-74
2022/12/01 02:31:28;;;;;;;74.90;24.77;;;;;;;4.66;100.00;102688.34;5203112;28;20045;-75
2022/12/01 02:34:14;;;;;;;70.07;25.45;;;;;;;4.67;100.00;102690.06;5202626;28;20152;-74
2022/12/01 02:36:51;;;;;;;76.28;28.20;;;;;;;4.65;100.00;102695.44;5204152;28;20033;-75
2022/12/01 02:39:46;;;;;;;72.13;25.42;;;;;;;4.67;100.00;102690.06;5204083;28;20071;-74
2022/12/01 02:45:20;;;;;;;71.82;24.55;;;;;;;4.69;100.00;102696.16;5203494;28;20049;-74
2022/12/01 02:47:55;;;;;;;73.65;26.92;;;;;;;4.68;100.00;102691.78;5203906;28;20054;-72
2022/12/01 02:50:28;;;;;;;77.85;25.10;;;;;;;4.67;100.00;102687.41;5191549;28;20079;-71
2022/12/01 02:53:09;;;;;;;79.70;26.25;;;;;;;4.65;100.00;102690.13;5203832;28;20032;-71
2022/12/01 02:55:52;;;;;;;73.63;24.33;;;;;;;4.73;100.00;102694.19;5203627;28;20096;-71
2022/12/01 02:58:23;;;;;;;72.38;25.48;;;;;;;4.68;100.00;102694.44;5203449;28;20049;-71
2022/12/01 03:01:27;;;;;;;74.70;24.88;;;;;;;4.73;100.00;102687.06;5203553;28;20014;-71
2022/12/01 03:04:31;;;;;;;69.20;24.15;;;;;;;4.70;100.00;102689.88;5203589;28;20160;-71
2022/12/01 03:07:29;;;;;;;65.50;24.48;;;;;;;4.76;100.00;102689.56;5203982;28;20041;-72
2022/12/01 03:10:06;;;;;;;68.80;25.25;;;;;;;4.71;100.00;102688.94;5203739;28;20033;-73
2022/12/01 03:12:57;;;;;;;69.15;23.75;;;;;;;4.70;100.00;102689.88;5203794;28;20044;-73
2022/12/01 03:16:07;;;;;;;73.10;24.08;;;;;;;4.76;100.00;102694.00;5203478;28;20034;-72
2022/12/01 03:18:50;;;;;;;66.60;22.52;;;;;;;4.69;100.00;102690.84;5202747;28;20022;-73
2022/12/01 03:21:41;;;;;;;74.22;25.38;;;;;;;4.70;100.00;102686.38;5191381;28;20549;-72
2022/12/01 03:24:14;;;;;;;75.10;26.77;;;;;;;4.73;100.00;102686.22;5203249;28;20017;-72
2022/12/01 03:26:50;;;;;;;75.38;24.40;;;;;;;4.70;100.00;102683.72;5203290;28;20033;-72
2022/12/01 03:29:30;;;;;;;70.95;25.80;;;;;;;4.67;100.00;102682.97;5190409;28;20052;-72
2022/12/01 03:32:40;;;;;;;74.53;26.75;;;;;;;4.67;100.00;102687.41;5203268;28;20021;-73
2022/12/01 03:35:28;;;;;;;73.50;26.25;;;;;;;4.66;100.00;102683.03;5191645;28;20038;-75
2022/12/01 03:38:08;;;;;;;74.68;27.13;;;;;;;4.67;100.00;102682.97;5203273;28;20027;-73
2022/12/01 03:40:40;;;;;;;78.53;28.55;;;;;;;4.63;100.00;102683.19;5203225;28;20029;-73
2022/12/01 03:43:17;;;;;;;73.03;26.13;;;;;;;4.65;100.00;102686.63;5203377;28;20029;-73
2022/12/01 03:46:00;;;;;;;79.22;27.15;;;;;;;4.63;100.00;102688.53;5202765;28;20502;-72
2022/12/01 03:48:32;;;;;;;80.20;28.67;;;;;;;4.59;100.00;102689.63;5202851;28;20029;-73
2022/12/01 03:51:08;;;;;;;85.88;29.17;;;;;;;4.60;100.00;102688.66;5203369;28;20390;-72
2022/12/01 03:54:01;;;;;;;88.25;30.30;;;;;;;4.62;100.00;102684.16;5203254;28;20561;-72
2022/12/01 03:56:50;;;;;;;92.30;32.88;;;;;;;4.61;100.00;102693.03;5202640;28;20029;-73
2022/12/01 03:59:23;;;;;;;88.80;31.45;;;;;;;4.64;100.00;102692.88;5203218;28;20471;-73
2022/12/01 04:01:53;;;;;;;99.18;33.22;;;;;;;4.63;100.00;102686.72;5203230;28;20022;-72
2022/12/01 04:04:24;;;;;;;96.70;33.63;;;;;;;4.62;100.00;102697.44;5201384;28;20022;-72
2022/12/01 04:06:54;;;;;;;93.97;31.70;;;;;;;4.62;100.00;102690.31;5203089;28;20103;-72
2022/12/01 04:09:25;;;;;;;98.82;34.00;;;;;;;4.65;100.00;102690.13;5202750;28;20057;-73
2022/12/01 04:14:44;;;;;;;101.07;31.17;;;;;;;4.68;100.00;102689.13;5193182;28;20033;-73
2022/12/01 04:17:15;;;;;;;97.82;32.15;;;;;;;4.74;100.00;102698.56;5206211;28;20082;-73
2022/12/01 04:19:45;;;;;;;100.15;30.67;;;;;;;4.74;100.00;102688.78;5207186;28;20136;-74
2022/12/01 04:22:16;;;;;;;88.50;27.95;;;;;;;4.75;100.00;102689.63;5207084;28;20079;-73
2022/12/01 04:24:46;;;;;;;97.47;31.05;;;;;;;4.79;100.00;102689.41;5206750;28;20104;-73
2022/12/01 04:27:17;;;;;;;98.75;29.77;;;;;;;4.78;100.00;102684.16;5202122;28;20025;-74
2022/12/01 04:29:47;;;;;;;97.80;30.75;;;;;;;4.75;100.00;102679.88;5197553;28;20163;-73
2022/12/01 04:32:18;;;;;;;95.78;29.95;;;;;;;4.76;100.00;102676.25;5205328;28;20061;-73
2022/12/01 04:34:48;;;;;;;97.47;29.65;;;;;;;4.77;100.00;102680.66;5206684;28;20115;-72
2022/12/01 04:37:19;;;;;;;100.88;30.90;;;;;;;4.82;100.00;102681.25;5206277;28;20244;-73
2022/12/01 04:39:50;;;;;;;87.80;29.70;;;;;;;4.80;100.00;102677.81;5205991;28;20426;-73
2022/12/01 04:42:20;;;;;;;92.10;30.02;;;;;;;4.79;100.00;102683.22;5206557;28;20017;-73
2022/12/01 04:44:51;;;;;;;98.20;30.50;;;;;;;4.81;100.00;102678.66;5206452;28;20111;-72
2022/12/01 04:47:21;;;;;;;98.50;31.65;;;;;;;4.80;100.00;102677.81;5206230;28;20041;-72
2022/12/01 04:49:52;;;;;;;98.53;30.40;;;;;;;4.80;100.00;102675.16;5206640;28;20048;-72
2022/12/01 04:52:22;;;;;;;99.88;32.15;;;;;;;4.80;100.00;102671.63;5205276;28;20376;-72
2022/12/01 04:54:52;;;;;;;91.22;29.92;;;;;;;4.81;100.00;102690.16;5206056;28;20387;-73
2022/12/01 04:57:23;;;;;;;94.50;31.38;;;;;;;4.82;100.00;102681.25;5206062;28;20489;-72
2022/12/01 04:59:53;;;;;;;100.10;30.98;;;;;;;4.83;100.00;102680.31;5205139;28;20491;-73
2022/12/01 05:02:24;;;;;;;103.05;34.22;;;;;;;4.90;100.00;102675.50;5206347;28;20383;-73
2022/12/01 05:04:54;;;;;;;105.63;30.27;;;;;;;4.92;100.00;102679.81;5205822;28;20021;-73
2022/12/01 05:07:25;;;;;;;95.68;28.33;;;;;;;4.90;100.00;102679.03;5205736;28;20112;-72
2022/12/01 05:09:56;;;;;;;92.90;29.77;;;;;;;4.90;100.00;102680.81;5205847;28;20055;-73
2022/12/01 05:12:26;;;;;;;95.50;28.48;;;;;;;4.87;100.00;102675.66;5205925;28;20068;-72
2022/12/01 05:14:57;;;;;;;84.68;29.45;;;;;;;4.83;100.00;102682.97;5206469;28;20033;-73
2022/12/01 05:17:30;;;;;;;82.95;26.73;;;;;;;4.83;100.00;102677.66;5205711;28;20029;-74
2022/12/01 05:22:51;;;;;;;93.72;30.77;;;;;;;4.85;100.00;102688.19;5192920;28;20071;-73
2022/12/01 05:25:21;;;;;;;90.68;28.80;;;;;;;4.86;100.00;102684.59;5204184;28;20029;-73
2022/12/01 05:27:52;;;;;;;86.47;26.88;;;;;;;4.84;100.00;102679.38;5196175;28;20017;-73
2022/12/01 05:30:22;;;;;;;91.32;28.30;;;;;;;4.84;100.00;102678.50;5201370;28;20025;-72
2022/12/01 05:32:53;;;;;;;82.10;28.17;;;;;;;4.84;100.00;102682.03;5205484;28;20028;-73
2022/12/01 05:35:24;;;;;;;90.82;29.35;;;;;;;4.84;100.00;102684.69;5205471;28;20033;-72
2022/12/01 05:37:54;;;;;;;85.43;28.08;;;;;;;4.84;100.00;102681.16;5205388;28;20025;-73
2022/12/01 05:40:25;;;;;;;85.80;28.05;;;;;;;4.86;100.00;102677.47;5205203;28;20140;-73
2022/12/01 05:42:56;;;;;;;89.55;28.88;;;;;;;4.88;100.00;102680.06;5205546;28;20487;-73
2022/12/01 05:45:27;;;;;;;79.25;26.13;;;;;;;4.92;100.00;102676.28;5205718;28;20025;-72
2022/12/01 05:47:59;;;;;;;88.10;28.08;;;;;;;4.89;100.00;102677.31;5204794;28;20029;-72
2022/12/01 05:50:29;;;;;;;87.78;30.02;;;;;;;4.87;100.00;102680.97;5205713;28;20531;-72
2022/12/01 05:53:00;;;;;;;85.38;27.55;;;;;;;4.85;100.00;102677.56;5204632;28;20041;-72
2022/12/01 05:55:35;;;;;;;84.32;29.48;;;;;;;4.90;100.00;102694.13;5205291;28;20394;-73
2022/12/01 05:58:05;;;;;;;87.35;26.17;;;;;;;4.86;100.00;102688.09;5205266;28;20444;-73
2022/12/01 06:00:37;;;;;;;94.22;28.33;;;;;;;4.85;100.00;102681.06;5205171;28;20025;-73
2022/12/01 06:03:07;;;;;;;80.45;25.70;;;;;;;4.89;100.00;102687.09;5204768;28;20021;-72
2022/12/01 06:05:38;;;;;;;84.80;28.40;;;;;;;4.91;100.00;102690.50;5203823;28;20025;-72
2022/12/01 06:08:09;;;;;;;87.78;27.50;;;;;;;4.93;100.00;102681.53;5204377;28;20026;-72
2022/12/01 06:10:39;;;;;;;85.80;27.60;;;;;;;4.94;100.00;102680.56;5204821;28;20061;-73
2022/12/01 06:13:10;;;;;;;87.25;26.73;;;;;;;4.96;100.00;102682.28;5205215;28;20029;-73
2022/12/01 06:15:40;;;;;;;68.30;26.00;;;;;;;4.96;100.00;102684.94;5204579;28;20471;-73
2022/12/01 06:18:10;;;;;;;83.10;26.13;;;;;;;4.95;100.00;102681.44;5204375;28;20013;-73
2022/12/01 06:20:41;;;;;;;76.82;25.33;;;;;;;4.94;100.00;102688.56;5204601;28;20084;-73
2022/12/01 06:23:11;;;;;;;82.97;27.42;;;;;;;4.91;100.00;102688.72;5204565;28;20021;-73
2022/12/01 06:25:42;;;;;;;84.53;27.52;;;;;;;4.91;100.00;102685.19;5204733;28;20025;-73
2022/12/01 06:28:13;;;;;;;79.97;26.52;;;;;;;4.91;100.00;102687.84;5191915;28;20106;-73
2022/12/01 06:30:44;;;;;;;82.97;27.23;;;;;;;4.92;100.00;102689.59;5202857;28;20064;-73
2022/12/01 06:33:14;;;;;;;92.07;28.13;;;;;;;4.93;100.00;102686.84;5204255;28;20484;-73
2022/12/01 06:35:45;;;;;;;86.60;26.27;;;;;;;4.99;100.00;102687.44;5203904;28;20071;-73
2022/12/01 06:38:15;;;;;;;82.40;27.17;;;;;;;4.97;100.00;102699.94;5204019;28;20029;-73
2022/12/01 06:40:46;;;;;;;73.40;25.38;;;;;;;4.96;100.00;102699.09;5204048;28;20113;-73
2022/12/01 06:43:16;;;;;;;91.13;27.58;;;;;;;4.98;100.00;102693.72;5204157;28;20092;-73
2022/12/01 06:45:47;;;;;;;80.72;25.80;;;;;;;4.95;100.00;102700.03;5204194;28;20021;-73
2022/12/01 06:48:17;;;;;;;86.35;26.63;;;;;;;4.93;100.00;102700.13;5203630;28;20486;-73
2022/12/01 06:50:48;;;;;;;89.45;29.38;;;;;;;4.91;100.00;102707.31;5203317;28;20029;-72
2022/12/01 06:53:18;;;;;;;86.15;28.45;;;;;;;4.91;100.00;102706.47;5203794;28;20491;-73
2022/12/01 06:55:49;;;;;;;85.38;29.17;;;;;;;4.91;100.00;102709.97;5204205;28;20110;-73
2022/12/01 06:58:19;;;;;;;83.80;26.60;;;;;;;4.95;100.00;102713.34;5203463;28;20399;-73
2022/12/01 07:00:50;;;;;;;72.72;25.02;;;;;;;4.95;100.00;102713.34;5204037;28;20472;-73
2022/12/01 07:03:20;;;;;;;76.18;26.38;;;;;;;4.94;100.00;102716.94;5203769;28;20057;-73
2022/12/01 07:05:57;;;;;;;79.65;25.48;;;;;;;4.93;100.00;102723.22;5203587;28;20563;-73
2022/12/01 07:08:30;;;;;;;86.95;26.88;;;;;;;4.92;100.00;102721.50;5203394;28;20025;-74
2022/12/01 07:11:05;;;;;;;75.15;26.20;;;;;;;4.89;100.00;102727.84;5202680;28;20497;-72
2022/12/01 07:13:35;;;;;;;75.00;25.77;;;;;;;4.91;100.00;102727.75;5203913;28;20249;-72
2022/12/01 07:16:08;;;;;;;84.93;27.45;;;;;;;4.89;100.00;102724.31;5203161;28;20057;-72
2022/12/01 07:18:39;;;;;;;90.75;28.17;;;;;;;4.88;100.00;102728.78;5203251;28;20029;-72
2022/12/01 07:21:12;;;;;;;74.15;26.13;;;;;;;4.89;100.00;102732.31;5203783;28;20029;-73
2022/12/01 07:23:43;;;;;;;79.40;27.42;;;;;;;4.87;100.00;102732.41;5203633;28;20018;-73
2022/12/01 07:26:16;;;;;;;86.70;28.10;;;;;;;4.90;100.00;102732.22;5203578;28;20031;-73
2022/12/01 07:28:46;;;;;;;77.90;27.10;;;;;;;4.90;100.00;102724.22;5189292;28;20033;-72
2022/12/01 07:31:18;;;;;;;82.90;28.30;;;;;;;4.88;100.00;102730.59;5203283;28;20040;-72
2022/12/01 07:33:48;;;;;;;74.22;24.73;;;;;;;4.86;100.00;102733.31;5203626;28;20055;-72
2022/12/01 07:36:19;;;;;;;87.95;28.38;;;;;;;4.88;100.00;102733.25;5203586;28;20035;-72
2022/12/01 07:38:50;;;;;;;79.95;27.15;;;;;;;4.88;100.00;102735.91;5202893;28;20049;-72
2022/12/01 07:41:20;;;;;;;72.43;27.35;;;;;;;4.89;100.00;102735.81;5203314;28;20114;-72
2022/12/01 07:43:51;;;;;;;80.28;26.98;;;;;;;4.89;100.00;102738.47;5203621;28;20013;-72
2022/12/01 07:46:25;;;;;;;84.80;26.80;;;;;;;4.91;100.00;102741.91;5203324;28;20430;-72
2022/12/01 07:48:56;;;;;;;74.80;25.55;;;;;;;4.91;100.00;102749.88;5202241;28;20380;-72
2022/12/01 07:51:27;;;;;;;76.40;26.83;;;;;;;4.92;100.00;102745.44;5203253;28;20017;-72
2022/12/01 07:54:02;;;;;;;83.15;26.60;;;;;;;4.99;100.00;102745.97;5203354;28;20021;-72
2022/12/01 07:56:33;;;;;;;75.82;26.70;;;;;;;4.97;100.00;102739.84;5203987;28;20021;-72
2022/12/01 07:59:03;;;;;;;75.32;25.55;;;;;;;4.97;100.00;102746.06;5203344;28;20025;-72
2022/12/01 08:01:34;;;;;;;74.00;25.55;;;;;;;4.99;100.00;102760.13;5203570;28;20033;-72
2022/12/01 08:04:04;;;;;;;69.60;26.63;;;;;;;5.03;100.00;102758.16;5195122;28;20112;-72
2022/12/01 08:06:35;;;;;;;67.07;25.50;;;;;;;5.00;100.00;102755.66;5189797;28;20466;-72
2022/12/01 08:09:05;;;;;;;75.80;28.42;;;;;;;5.02;100.00;102756.41;5201239;28;20494;-72
2022/12/01 08:11:36;;;;;;;74.80;25.92;;;;;;;5.02;100.00;102754.66;5202226;28;20032;-72
2022/12/01 08:14:06;;;;;;;79.10;28.55;;;;;;;5.01;100.00;102758.22;5201900;28;20034;-72
2022/12/01 08:16:37;;;;;;;73.22;24.40;;;;;;;4.99;100.00;102754.78;5201418;28;20018;-72
2022/12/01 08:19:09;;;;;;;67.65;24.27;;;;;;;5.00;100.00;102768.97;5200983;28;20065;-72
2022/12/01 08:21:39;;;;;;;82.40;27.40;;;;;;;5.02;100.00;102770.59;5201947;28;20022;-72
2022/12/01 08:24:10;;;;;;;86.53;28.05;;;;;;;5.04;100.00;102762.53;5200793;28;20364;-72
2022/12/01 08:26:40;;;;;;;80.57;27.80;;;;;;;5.07;100.00;102771.22;5204787;28;20025;-72
2022/12/01 08:29:11;;;;;;;72.57;24.90;;;;;;;5.13;100.00;102772.69;5209655;28;20028;-72
2022/12/01 08:31:41;;;;;;;80.00;27.65;;;;;;;5.17;100.00;102776.88;5206759;28;20013;-72
2022/12/01 08:34:12;;;;;;;76.95;26.80;;;;;;;5.20;100.00;102772.25;5219421;28;20459;-72
2022/12/01 08:36:42;;;;;;;82.60;28.38;;;;;;;5.24;100.00;102783.59;5204859;28;20037;-72
2022/12/01 08:39:13;;;;;;;86.97;27.27;;;;;;;5.25;100.00;102779.97;5212688;28;20035;-72
2022/12/01 08:41:44;;;;;;;72.05;26.92;;;;;;;5.27;100.00;102778.09;5205231;28;20029;-72
2022/12/01 08:44:14;;;;;;;85.30;28.13;;;;;;;5.31;100.00;102784.94;5213591;28;20383;-72
2022/12/01 08:46:44;;;;;;;78.22;28.60;;;;;;;5.32;100.00;102789.34;5207328;28;20025;-72
2022/12/01 08:49:15;;;;;;;75.03;28.48;;;;;;;5.35;100.00;102786.50;5211578;28;20039;-72
2022/12/01 08:51:45;;;;;;;81.80;27.98;;;;;;;5.37;100.00;102789.06;5211810;28;20033;-72
2022/12/01 08:54:16;;;;;;;76.32;26.70;;;;;;;5.39;100.00;102788.06;5213967;28;20481;-72
2022/12/01 08:56:46;;;;;;;79.35;27.58;;;;;;;5.41;100.00;102788.81;5211229;28;20489;-72
2022/12/01 08:59:17;;;;;;;78.60;28.40;;;;;;;5.45;100.00;102786.84;5218926;28;20032;-72
2022/12/01 09:01:56;;;;;;;81.65;28.23;;;;;;;5.44;100.00;102788.66;5220685;28;20044;-72
2022/12/01 09:04:27;;;;;;;79.32;27.50;;;;;;;5.48;100.00;102781.38;5213182;28;20099;-72
2022/12/01 09:06:57;;;;;;;78.47;28.13;;;;;;;5.51;100.00;102783.84;5211926;28;20029;-72
2022/12/01 09:09:28;;;;;;;79.22;27.33;;;;;;;5.54;100.00;102790.81;5215898;28;20045;-72
2022/12/01 09:11:58;;;;;;;82.40;29.50;;;;;;;5.57;100.00;102785.28;5218054;28;20025;-72
2022/12/01 09:14:29;;;;;;;86.68;28.55;;;;;;;5.59;100.00;102784.28;5212917;28;20033;-72
2022/12/01 09:16:59;;;;;;;83.55;27.33;;;;;;;5.60;100.00;102791.31;5218538;28;20032;-72
2022/12/01 09:19:30;;;;;;;113.93;30.52;;;;;;;5.62;100.00;102794.75;5208259;28;20564;-72
2022/12/01 09:22:01;;;;;;;94.18;28.35;;;;;;;5.65;100.00;102783.91;5217697;28;20029;-72
2022/12/01 09:24:31;;;;;;;88.93;28.27;;;;;;;5.69;100.00;102796.13;5216455;28;20386;-72
2022/12/01 09:27:02;;;;;;;90.45;29.95;;;;;;;5.73;100.00;102794.16;5202460;28;20461;-72
2022/12/01 09:29:32;;;;;;;77.13;28.58;;;;;;;5.73;100.00;102791.50;5206520;28;20052;-72
2022/12/01 09:32:03;;;;;;;71.75;27.58;;;;;;;5.75;100.00;102792.25;5206550;28;20029;-72
2022/12/01 09:34:33;;;;;;;84.75;28.58;;;;;;;5.76;100.00;102793.97;5211338;28;20479;-72
2022/12/01 09:37:04;;;;;;;76.00;28.83;;;;;;;5.76;100.00;102796.63;5204324;28;20029;-72
2022/12/01 09:39:34;;;;;;;81.53;28.95;;;;;;;5.78;100.00;102802.75;5213223;28;20040;-72
2022/12/01 09:42:11;;;;;;;77.03;28.80;;;;;;;5.81;100.00;102793.69;5211936;28;20510;-72
2022/12/01 09:44:47;;;;;;;74.60;26.02;;;;;;;5.83;100.00;102806.00;5210391;28;20040;-72
2022/12/01 09:47:24;;;;;;;80.28;28.05;;;;;;;5.87;100.00;102810.22;5202544;28;20082;-72
2022/12/01 09:50:13;;;;;;;78.85;27.48;;;;;;;5.91;100.00;102806.44;5216313;28;20025;-73
2022/12/01 09:52:49;;;;;;;75.90;27.45;;;;;;;5.91;100.00;102810.88;5213445;28;20563;-72
2022/12/01 09:55:23;;;;;;;74.25;28.08;;;;;;;5.92;100.00;102805.50;5214832;28;20128;-72
2022/12/01 09:57:57;;;;;;;74.70;27.30;;;;;;;5.95;100.00;102807.97;5213148;28;20029;-72
2022/12/01 10:00:35;;;;;;;70.75;26.90;;;;;;;5.97;100.00;102795.44;5215251;28;20123;-72
2022/12/01 10:03:27;;;;;;;74.65;27.30;;;;;;;5.99;100.00;102794.50;5211988;28;20031;-72
2022/12/01 10:06:15;;;;;;;83.55;29.67;;;;;;;6.02;100.00;102800.47;5211404;28;20021;-72
2022/12/01 10:09:06;;;;;;;80.07;28.38;;;;;;;6.06;100.00;102795.84;5208009;28;20036;-73
2022/12/01 10:11:40;;;;;;;71.60;26.38;;;;;;;6.07;100.00;102801.06;5206834;28;20148;-72
2022/12/01 10:14:16;;;;;;;72.78;26.48;;;;;;;6.07;100.00;102789.56;5213614;28;20041;-72
2022/12/01 10:17:09;;;;;;;77.38;27.27;;;;;;;6.09;100.00;102788.53;5214934;28;20029;-72
2022/12/01 10:19:42;;;;;;;71.97;27.20;;;;;;;6.13;100.00;102783.91;5183983;28;20041;-72
2022/12/01 10:22:51;;;;;;;69.03;25.85;;;;;;;6.16;100.00;102779.22;5210929;28;20033;-72
2022/12/01 10:25:54;;;;;;;73.45;27.95;;;;;;;6.18;100.00;102780.00;5208692;28;20031;-72
2022/12/01 10:28:40;;;;;;;99.38;28.10;;;;;;;6.21;100.00;102784.28;5206697;28;20037;-72
2022/12/01 10:31:16;;;;;;;;;;;;;;;6.25;100.00;102766.31;5212918;28;20029;-72
2022/12/01 10:33:59;;;;;;;81.05;26.52;;;;;;;6.28;100.00;102776.78;5210421;28;19913;-72
2022/12/01 10:36:32;;;;;;;72.65;26.95;;;;;;;6.33;100.00;102764.91;5203007;28;20036;-72
2022/12/01 10:39:06;;;;;;;77.00;27.13;;;;;;;6.39;100.00;102761.88;5201709;28;20029;-72
2022/12/01 10:41:38;;;;;;;69.65;25.42;;;;;;;6.41;100.00;102761.75;5203162;28;20538;-72
2022/12/01 10:44:09;;;;;;;70.38;25.58;;;;;;;6.48;100.00;102757.78;5202965;28;20053;-72
2022/12/01 10:46:47;;;;;;;69.35;25.83;;;;;;;6.53;100.00;102757.53;5201979;28;20465;-72
2022/12/01 10:49:19;;;;;;;64.32;24.42;;;;;;;6.54;100.00;102746.75;5202039;28;20492;-72
2022/12/01 10:51:53;;;;;;;66.88;24.77;;;;;;;6.55;100.00;102755.59;5203061;28;20032;-73
2022/12/01 10:54:39;;;;;;;70.47;23.23;;;;;;;6.58;100.00;102750.09;5202722;28;20021;-72
2022/12/01 10:57:14;;;;;;;;;;;;;;;6.61;100.00;102757.88;5202097;28;20521;-72
2022/12/01 10:59:50;;;;;;;66.82;24.17;;;;;;;6.63;100.00;102756.84;5201971;28;19999;-72
2022/12/01 11:02:23;;;;;;;60.53;24.27;;;;;;;6.66;100.00;102753.13;5202369;28;20021;-72
2022/12/01 11:05:00;;;;;;;56.10;23.17;;;;;;;6.69;100.00;102756.47;5202634;28;20037;-72
2022/12/01 11:07:45;;;;;;;60.05;22.67;;;;;;;6.70;100.00;102752.00;5200962;28;20025;-72
2022/12/01 11:10:30;;;;;;;73.55;25.95;;;;;;;6.70;100.00;102752.84;5201944;28;20495;-72
2022/12/01 11:13:06;;;;;;;69.72;23.30;;;;;;;6.72;100.00;102744.75;5202331;28;20368;-73
2022/12/01 11:15:39;;;;;;;57.42;23.98;;;;;;;6.73;100.00;102744.66;5202027;28;20021;-72
2022/12/01 11:18:28;;;;;;;56.35;22.10;;;;;;;6.72;100.00;102739.41;5201301;28;20033;-73
2022/12/01 11:21:26;;;;;;;55.72;23.88;;;;;;;6.72;100.00;102740.25;5202107;28;20049;-72
2022/12/01 11:23:56;;;;;;;61.67;23.20;;;;;;;6.69;100.00;102740.47;5201734;28;20432;-72
2022/12/01 11:26:31;;;;;;;63.35;22.42;;;;;;;6.78;100.00;102744.38;5201880;28;20108;-73
2022/12/01 11:29:34;;;;;;;66.00;23.92;;;;;;;6.74;100.00;102732.19;5187432;28;20113;-72
2022/12/01 11:32:27;;;;;;;56.22;22.38;;;;;;;6.76;100.00;102732.94;5201323;28;20091;-72
2022/12/01 11:35:13;;;;;;;60.50;22.73;;;;;;;6.82;100.00;102735.22;5202016;28;20169;-73
2022/12/01 11:37:47;;;;;;;59.25;22.25;;;;;;;6.86;100.00;102739.41;5201167;28;20086;-72
2022/12/01 11:40:22;;;;;;;57.17;23.57;;;;;;;6.91;100.00;102729.31;5199337;28;20100;-72
2022/12/01 11:42:59;;;;;;;62.45;23.65;;;;;;;6.99;100.00;102728.84;5212061;28;20031;-72
2022/12/01 11:45:38;;;;;;;65.07;23.77;;;;;;;7.01;100.00;102725.09;5208483;28;20432;-72
2022/12/01 11:48:23;;;;;;;61.92;23.55;;;;;;;7.05;100.00;102724.91;5205564;28;20541;-72
2022/12/01 11:51:16;;;;;;;58.08;23.35;;;;;;;7.09;100.00;102729.97;5210771;28;20072;-73
2022/12/01 11:53:47;;;;;;;65.20;23.63;;;;;;;7.13;100.00;102725.25;5204510;28;20025;-72
2022/12/01 11:56:27;;;;;;;66.28;24.05;;;;;;;7.12;100.00;102720.88;5204974;28;20048;-72